sensor_id;sensor_type;location;lat;lon;timestamp;temperature;humidity
50162;DHT22;36061;48.116;11.612;2023-08-31T00:02:06;13.70;99.90
50162;DHT22;36061;48.116;11.612;2023-08-31T00:04:36;13.60;99.90
50162;DHT22;36061;48.116;11.612;2023-08-31T00:07:04;13.60;99.90
50162;DHT22;36061;48.116;11.612;2023-08-31T00:09:32;13.60;99.90
50162;DHT22;36061;48.116;11.612;2023-08-31T00:12:01;13.70;99.90
50162;DHT22;36061;48.116;11.612;2023-08-31T00:14:28;13.60;99.90
50162;DHT22;36061;48.116;11.612;2023-08-31T00:16:56;13.60;99.90
50162;DHT22;36061;48.116;11.612;2023-08-31T00:19:24;13.60;99.90
50162;DHT22;36061;48.116;11.612;2023-08-31T00:21:52;13.50;99.90
50162;DHT22;36061;48.116;11.612;2023-08-31T00:24:19;13.60;99.90
50162;DHT22;36061;48.116;11.612;2023-08-31T00:26:48;13.60;99.90
50162;DHT22;36061;48.116;11.612;2023-08-31T00:29:17;13.50;99.90
50162;DHT22;36061;48.116;11.612;2023-08-31T00:31:44;13.50;99.90
50162;DHT22;36061;48.116;11.612;2023-08-31T00:34:11;13.50;99.90
50162;DHT22;36061;48.116;11.612;2023-08-31T00:36:43;13.50;99.90
50162;DHT22;36061;48.116;11.612;2023-08-31T00:39:12;13.80;99.90
50162;DHT22;36061;48.116;11.612;2023-08-31T00:41:39;13.40;99.90
50162;DHT22;36061;48.116;11.612;2023-08-31T00:44:07;13.40;99.90
50162;DHT22;36061;48.116;11.612;2023-08-31T00:46:34;13.40;99.90
50162;DHT22;36061;48.116;11.612;2023-08-31T00:49:02;13.30;99.90
50162;DHT22;36061;48.116;11.612;2023-08-31T00:51:30;13.30;99.90
50162;DHT22;36061;48.116;11.612;2023-08-31T00:53:58;13.30;99.90
50162;DHT22;36061;48.116;11.612;2023-08-31T00:56:28;13.30;99.90
50162;DHT22;36061;48.116;11.612;2023-08-31T00:58:55;13.20;99.90
50162;DHT22;36061;48.116;11.612;2023-08-31T01:01:27;13.30;99.90
50162;DHT22;36061;48.116;11.612;2023-08-31T01:04:02;13.20;99.90
50162;DHT22;36061;48.116;11.612;2023-08-31T01:06:38;13.20;99.90
50162;DHT22;36061;48.116;11.612;2023-08-31T01:09:13;13.20;99.90
50162;DHT22;36061;48.116;11.612;2023-08-31T01:11:55;13.20;99.90
50162;DHT22;36061;48.116;11.612;2023-08-31T01:14:31;13.20;99.90
50162;DHT22;36061;48.116;11.612;2023-08-31T01:16:59;13.20;99.90
50162;DHT22;36061;48.116;11.612;2023-08-31T01:19:43;13.10;99.90
50162;DHT22;36061;48.116;11.612;2023-08-31T01:22:16;13.10;99.90
50162;DHT22;36061;48.116;11.612;2023-08-31T01:24:48;13.10;99.90
50162;DHT22;36061;48.116;11.612;2023-08-31T01:27:15;13.10;99.90
50162;DHT22;36061;48.116;11.612;2023-08-31T01:29:44;13.00;99.90
50162;DHT22;36061;48.116;11.612;2023-08-31T01:32:11;13.00;99.90
50162;DHT22;36061;48.116;11.612;2023-08-31T01:34:39;12.90;99.90
50162;DHT22;36061;48.116;11.612;2023-08-31T01:37:12;12.80;99.90
50162;DHT22;36061;48.116;11.612;2023-08-31T01:39:48;12.80;99.90
50162;DHT22;36061;48.116;11.612;2023-08-31T01:42:16;12.70;99.90
50162;DHT22;36061;48.116;11.612;2023-08-31T01:44:45;12.70;99.90
50162;DHT22;36061;48.116;11.612;2023-08-31T01:47:15;12.70;99.90
50162;DHT22;36061;48.116;11.612;2023-08-31T01:49:44;12.70;99.90
50162;DHT22;36061;48.116;11.612;2023-08-31T01:52:12;12.70;99.90
50162;DHT22;36061;48.116;11.612;2023-08-31T01:54:39;12.70;99.90
50162;DHT22;36061;48.116;11.612;2023-08-31T01:57:08;12.80;99.90
50162;DHT22;36061;48.116;11.612;2023-08-31T01:59:55;12.80;99.90
50162;DHT22;36061;48.116;11.612;2023-08-31T02:02:22;12.80;99.90
50162;DHT22;36061;48.116;11.612;2023-08-31T02:04:49;12.80;99.90
50162;DHT22;36061;48.116;11.612;2023-08-31T02:07:17;12.80;99.90
50162;DHT22;36061;48.116;11.612;2023-08-31T02:09:45;12.80;99.90
50162;DHT22;36061;48.116;11.612;2023-08-31T02:12:13;12.80;99.90
50162;DHT22;36061;48.116;11.612;2023-08-31T02:14:40;12.80;99.90
50162;DHT22;36061;48.116;11.612;2023-08-31T02:17:07;12.90;99.90
50162;DHT22;36061;48.116;11.612;2023-08-31T02:19:35;12.90;99.90
50162;DHT22;36061;48.116;11.612;2023-08-31T02:22:02;12.90;99.90
50162;DHT22;36061;48.116;11.612;2023-08-31T02:24:29;12.90;99.90
50162;DHT22;36061;48.116;11.612;2023-08-31T02:26:57;13.00;99.90
50162;DHT22;36061;48.116;11.612;2023-08-31T02:29:27;13.00;99.90
50162;DHT22;36061;48.116;11.612;2023-08-31T02:31:55;13.00;99.90
50162;DHT22;36061;48.116;11.612;2023-08-31T02:34:22;13.00;99.90
50162;DHT22;36061;48.116;11.612;2023-08-31T02:36:49;13.00;99.90
50162;DHT22;36061;48.116;11.612;2023-08-31T02:39:16;13.00;99.90
50162;DHT22;36061;48.116;11.612;2023-08-31T02:41:43;13.00;99.90
50162;DHT22;36061;48.116;11.612;2023-08-31T02:44:11;13.10;99.90
50162;DHT22;36061;48.116;11.612;2023-08-31T02:46:40;13.10;99.90
50162;DHT22;36061;48.116;11.612;2023-08-31T02:49:07;13.10;99.90
50162;DHT22;36061;48.116;11.612;2023-08-31T02:51:34;13.10;99.90
50162;DHT22;36061;48.116;11.612;2023-08-31T02:54:01;13.10;99.90
50162;DHT22;36061;48.116;11.612;2023-08-31T02:56:29;13.10;99.90
50162;DHT22;36061;48.116;11.612;2023-08-31T02:58:56;13.10;99.90
50162;DHT22;36061;48.116;11.612;2023-08-31T03:01:24;13.00;99.90
50162;DHT22;36061;48.116;11.612;2023-08-31T03:03:53;13.00;99.90
50162;DHT22;36061;48.116;11.612;2023-08-31T03:06:21;13.00;99.90
50162;DHT22;36061;48.116;11.612;2023-08-31T03:08:48;13.00;99.90
50162;DHT22;36061;48.116;11.612;2023-08-31T03:11:16;13.00;99.90
50162;DHT22;36061;48.116;11.612;2023-08-31T03:13:43;13.00;99.90
50162;DHT22;36061;48.116;11.612;2023-08-31T03:16:11;13.00;99.90
50162;DHT22;36061;48.116;11.612;2023-08-31T03:18:39;13.00;99.90
50162;DHT22;36061;48.116;11.612;2023-08-31T03:21:07;12.90;99.90
50162;DHT22;36061;48.116;11.612;2023-08-31T03:23:35;12.90;99.90
50162;DHT22;36061;48.116;11.612;2023-08-31T03:26:06;12.90;99.90
50162;DHT22;36061;48.116;11.612;2023-08-31T03:28:34;12.90;99.90
50162;DHT22;36061;48.116;11.612;2023-08-31T03:31:01;12.90;99.90
50162;DHT22;36061;48.116;11.612;2023-08-31T03:33:28;12.90;99.90
50162;DHT22;36061;48.116;11.612;2023-08-31T03:36:00;12.90;99.90
50162;DHT22;36061;48.116;11.612;2023-08-31T03:38:32;12.90;99.90
50162;DHT22;36061;48.116;11.612;2023-08-31T03:41:03;12.90;99.90
50162;DHT22;36061;48.116;11.612;2023-08-31T03:43:32;12.90;99.90
50162;DHT22;36061;48.116;11.612;2023-08-31T03:45:59;12.90;99.90
50162;DHT22;36061;48.116;11.612;2023-08-31T03:48:27;12.90;99.90
50162;DHT22;36061;48.116;11.612;2023-08-31T03:50:54;12.90;99.90
50162;DHT22;36061;48.116;11.612;2023-08-31T03:53:22;12.80;99.90
50162;DHT22;36061;48.116;11.612;2023-08-31T03:55:55;12.80;99.90
50162;DHT22;36061;48.116;11.612;2023-08-31T03:58:24;12.70;99.90
50162;DHT22;36061;48.116;11.612;2023-08-31T04:00:53;12.70;99.90
50162;DHT22;36061;48.116;11.612;2023-08-31T04:03:20;12.70;99.90
50162;DHT22;36061;48.116;11.612;2023-08-31T04:05:48;12.70;99.90
50162;DHT22;36061;48.116;11.612;2023-08-31T04:08:15;12.70;99.90
50162;DHT22;36061;48.116;11.612;2023-08-31T04:10:43;12.70;99.90
50162;DHT22;36061;48.116;11.612;2023-08-31T04:13:12;12.70;99.90
50162;DHT22;36061;48.116;11.612;2023-08-31T04:15:39;12.70;99.90
50162;DHT22;36061;48.116;11.612;2023-08-31T04:18:06;12.70;99.90
50162;DHT22;36061;48.116;11.612;2023-08-31T04:20:33;12.70;99.90
50162;DHT22;36061;48.116;11.612;2023-08-31T04:23:01;12.70;99.90
50162;DHT22;36061;48.116;11.612;2023-08-31T04:25:29;12.70;99.90
50162;DHT22;36061;48.116;11.612;2023-08-31T04:27:56;12.80;99.90
50162;DHT22;36061;48.116;11.612;2023-08-31T04:30:25;12.80;99.90
50162;DHT22;36061;48.116;11.612;2023-08-31T04:32:52;12.80;99.90
50162;DHT22;36061;48.116;11.612;2023-08-31T04:35:20;12.80;99.90
50162;DHT22;36061;48.116;11.612;2023-08-31T04:37:47;12.80;99.90
50162;DHT22;36061;48.116;11.612;2023-08-31T04:40:14;12.80;99.90
50162;DHT22;36061;48.116;11.612;2023-08-31T04:42:42;12.90;99.90
50162;DHT22;36061;48.116;11.612;2023-08-31T04:45:10;12.90;99.90
50162;DHT22;36061;48.116;11.612;2023-08-31T04:47:39;12.90;99.90
50162;DHT22;36061;48.116;11.612;2023-08-31T04:50:08;12.90;99.90
50162;DHT22;36061;48.116;11.612;2023-08-31T04:52:35;12.90;99.90
50162;DHT22;36061;48.116;11.612;2023-08-31T04:55:06;13.00;99.90
50162;DHT22;36061;48.116;11.612;2023-08-31T04:57:34;13.00;99.90
50162;DHT22;36061;48.116;11.612;2023-08-31T05:00:01;13.00;99.90
50162;DHT22;36061;48.116;11.612;2023-08-31T05:02:31;13.00;99.90
50162;DHT22;36061;48.116;11.612;2023-08-31T05:05:00;13.00;99.90
50162;DHT22;36061;48.116;11.612;2023-08-31T05:07:30;13.10;99.90
50162;DHT22;36061;48.116;11.612;2023-08-31T05:09:57;13.10;99.90
50162;DHT22;36061;48.116;11.612;2023-08-31T05:12:27;13.10;99.90
50162;DHT22;36061;48.116;11.612;2023-08-31T05:14:54;13.10;99.90
50162;DHT22;36061;48.116;11.612;2023-08-31T05:17:21;13.20;99.90
50162;DHT22;36061;48.116;11.612;2023-08-31T05:19:49;13.20;99.90
50162;DHT22;36061;48.116;11.612;2023-08-31T05:22:17;13.20;99.90
50162;DHT22;36061;48.116;11.612;2023-08-31T05:24:44;13.20;99.90
50162;DHT22;36061;48.116;11.612;2023-08-31T05:27:12;13.20;99.90
50162;DHT22;36061;48.116;11.612;2023-08-31T05:29:39;13.20;99.90
50162;DHT22;36061;48.116;11.612;2023-08-31T05:32:06;13.30;99.90
50162;DHT22;36061;48.116;11.612;2023-08-31T05:34:33;13.40;99.90
50162;DHT22;36061;48.116;11.612;2023-08-31T05:37:05;13.70;99.90
50162;DHT22;36061;48.116;11.612;2023-08-31T05:39:34;14.20;99.90
50162;DHT22;36061;48.116;11.612;2023-08-31T05:42:01;14.50;99.90
50162;DHT22;36061;48.116;11.612;2023-08-31T05:44:29;14.80;99.90
50162;DHT22;36061;48.116;11.612;2023-08-31T05:46:56;15.10;99.90
50162;DHT22;36061;48.116;11.612;2023-08-31T05:49:23;15.30;99.90
50162;DHT22;36061;48.116;11.612;2023-08-31T05:51:50;15.40;99.90
50162;DHT22;36061;48.116;11.612;2023-08-31T05:54:17;15.30;99.90
50162;DHT22;36061;48.116;11.612;2023-08-31T05:56:46;15.10;99.90
50162;DHT22;36061;48.116;11.612;2023-08-31T05:59:13;14.90;99.90
50162;DHT22;36061;48.116;11.612;2023-08-31T06:01:41;14.70;99.90
50162;DHT22;36061;48.116;11.612;2023-08-31T06:04:08;14.50;99.90
50162;DHT22;36061;48.116;11.612;2023-08-31T06:06:35;14.40;99.90
50162;DHT22;36061;48.116;11.612;2023-08-31T06:09:04;14.30;99.90
50162;DHT22;36061;48.116;11.612;2023-08-31T06:11:32;14.20;99.90
50162;DHT22;36061;48.116;11.612;2023-08-31T06:14:02;14.10;99.90
50162;DHT22;36061;48.116;11.612;2023-08-31T06:16:29;14.10;99.90
50162;DHT22;36061;48.116;11.612;2023-08-31T06:18:56;14.00;99.90
50162;DHT22;36061;48.116;11.612;2023-08-31T06:21:23;14.10;99.90
50162;DHT22;36061;48.116;11.612;2023-08-31T06:23:51;14.10;99.90
50162;DHT22;36061;48.116;11.612;2023-08-31T06:26:18;14.10;99.90
50162;DHT22;36061;48.116;11.612;2023-08-31T06:28:45;14.20;99.90
50162;DHT22;36061;48.116;11.612;2023-08-31T06:31:13;14.00;99.90
50162;DHT22;36061;48.116;11.612;2023-08-31T06:33:41;14.10;99.90
50162;DHT22;36061;48.116;11.612;2023-08-31T06:36:08;14.00;99.90
50162;DHT22;36061;48.116;11.612;2023-08-31T06:38:35;14.10;99.90
50162;DHT22;36061;48.116;11.612;2023-08-31T06:41:02;14.10;99.90
50162;DHT22;36061;48.116;11.612;2023-08-31T06:43:30;14.10;99.90
50162;DHT22;36061;48.116;11.612;2023-08-31T06:45:57;14.10;99.90
50162;DHT22;36061;48.116;11.612;2023-08-31T06:48:26;14.10;99.90
50162;DHT22;36061;48.116;11.612;2023-08-31T06:50:53;14.10;99.90
50162;DHT22;36061;48.116;11.612;2023-08-31T06:53:21;14.10;99.90
50162;DHT22;36061;48.116;11.612;2023-08-31T06:55:49;14.20;99.90
50162;DHT22;36061;48.116;11.612;2023-08-31T06:58:16;14.10;99.90
50162;DHT22;36061;48.116;11.612;2023-08-31T07:00:43;14.10;99.90
50162;DHT22;36061;48.116;11.612;2023-08-31T07:03:10;14.20;99.90
50162;DHT22;36061;48.116;11.612;2023-08-31T07:05:42;14.20;99.90
50162;DHT22;36061;48.116;11.612;2023-08-31T07:08:10;14.20;99.90
50162;DHT22;36061;48.116;11.612;2023-08-31T07:10:37;14.10;99.90
50162;DHT22;36061;48.116;11.612;2023-08-31T07:13:04;14.20;99.90
50162;DHT22;36061;48.116;11.612;2023-08-31T07:15:33;14.20;99.90
50162;DHT22;36061;48.116;11.612;2023-08-31T07:18:00;14.20;99.90
50162;DHT22;36061;48.116;11.612;2023-08-31T07:20:28;14.20;99.90
50162;DHT22;36061;48.116;11.612;2023-08-31T07:22:56;14.20;99.90
50162;DHT22;36061;48.116;11.612;2023-08-31T07:25:25;14.20;99.90
50162;DHT22;36061;48.116;11.612;2023-08-31T07:27:53;14.20;99.90
50162;DHT22;36061;48.116;11.612;2023-08-31T07:30:20;14.20;99.90
50162;DHT22;36061;48.116;11.612;2023-08-31T07:32:47;14.30;99.90
50162;DHT22;36061;48.116;11.612;2023-08-31T07:35:14;14.30;99.90
50162;DHT22;36061;48.116;11.612;2023-08-31T07:37:42;14.40;99.90
50162;DHT22;36061;48.116;11.612;2023-08-31T07:40:11;14.50;99.90
50162;DHT22;36061;48.116;11.612;2023-08-31T07:42:38;14.50;99.90
50162;DHT22;36061;48.116;11.612;2023-08-31T07:45:07;14.50;99.90
50162;DHT22;36061;48.116;11.612;2023-08-31T07:47:34;14.60;99.90
50162;DHT22;36061;48.116;11.612;2023-08-31T07:50:01;14.70;99.90
50162;DHT22;36061;48.116;11.612;2023-08-31T07:52:29;14.70;99.90
50162;DHT22;36061;48.116;11.612;2023-08-31T07:54:57;14.70;99.90
50162;DHT22;36061;48.116;11.612;2023-08-31T07:57:25;14.70;99.90
50162;DHT22;36061;48.116;11.612;2023-08-31T07:59:52;14.80;99.90
50162;DHT22;36061;48.116;11.612;2023-08-31T08:02:20;14.80;99.90
50162;DHT22;36061;48.116;11.612;2023-08-31T08:04:47;14.80;99.90
50162;DHT22;36061;48.116;11.612;2023-08-31T08:07:14;15.00;99.90
50162;DHT22;36061;48.116;11.612;2023-08-31T08:09:41;15.10;99.90
50162;DHT22;36061;48.116;11.612;2023-08-31T08:12:09;15.20;99.90
50162;DHT22;36061;48.116;11.612;2023-08-31T08:14:37;15.30;99.90
50162;DHT22;36061;48.116;11.612;2023-08-31T08:17:05;15.40;99.90
50162;DHT22;36061;48.116;11.612;2023-08-31T08:19:32;15.60;99.90
50162;DHT22;36061;48.116;11.612;2023-08-31T08:21:59;15.70;99.90
50162;DHT22;36061;48.116;11.612;2023-08-31T08:24:26;15.90;99.90
50162;DHT22;36061;48.116;11.612;2023-08-31T08:26:53;15.90;99.90
50162;DHT22;36061;48.116;11.612;2023-08-31T08:29:20;15.90;99.90
50162;DHT22;36061;48.116;11.612;2023-08-31T08:31:49;15.90;99.90
50162;DHT22;36061;48.116;11.612;2023-08-31T08:34:16;15.80;99.90
50162;DHT22;36061;48.116;11.612;2023-08-31T08:36:43;15.80;99.90
50162;DHT22;36061;48.116;11.612;2023-08-31T08:39:12;15.80;99.90
50162;DHT22;36061;48.116;11.612;2023-08-31T08:41:39;15.70;99.90
50162;DHT22;36061;48.116;11.612;2023-08-31T08:44:08;15.60;99.90
50162;DHT22;36061;48.116;11.612;2023-08-31T08:46:36;15.60;99.90
50162;DHT22;36061;48.116;11.612;2023-08-31T08:49:05;15.50;99.90
50162;DHT22;36061;48.116;11.612;2023-08-31T08:51:33;15.60;99.90
50162;DHT22;36061;48.116;11.612;2023-08-31T08:54:01;15.60;99.90
50162;DHT22;36061;48.116;11.612;2023-08-31T08:56:29;15.60;99.90
50162;DHT22;36061;48.116;11.612;2023-08-31T08:58:56;15.70;99.90
50162;DHT22;36061;48.116;11.612;2023-08-31T09:01:24;15.80;99.90
50162;DHT22;36061;48.116;11.612;2023-08-31T09:03:52;15.80;99.90
50162;DHT22;36061;48.116;11.612;2023-08-31T09:06:22;16.00;99.90
50162;DHT22;36061;48.116;11.612;2023-08-31T09:08:55;16.20;99.90
50162;DHT22;36061;48.116;11.612;2023-08-31T09:11:23;16.40;99.90
50162;DHT22;36061;48.116;11.612;2023-08-31T09:13:51;16.60;99.90
50162;DHT22;36061;48.116;11.612;2023-08-31T09:16:25;16.50;99.90
50162;DHT22;36061;48.116;11.612;2023-08-31T09:18:54;16.40;99.90
50162;DHT22;36061;48.116;11.612;2023-08-31T09:21:23;16.30;99.90
50162;DHT22;36061;48.116;11.612;2023-08-31T09:24:01;16.30;99.90
50162;DHT22;36061;48.116;11.612;2023-08-31T09:26:28;16.30;99.90
50162;DHT22;36061;48.116;11.612;2023-08-31T09:29:01;16.30;99.90
50162;DHT22;36061;48.116;11.612;2023-08-31T09:31:29;16.30;99.90
50162;DHT22;36061;48.116;11.612;2023-08-31T09:33:56;16.30;99.90
50162;DHT22;36061;48.116;11.612;2023-08-31T09:36:26;16.30;99.90
50162;DHT22;36061;48.116;11.612;2023-08-31T09:38:57;16.20;99.90
50162;DHT22;36061;48.116;11.612;2023-08-31T09:41:24;16.20;99.90
50162;DHT22;36061;48.116;11.612;2023-08-31T09:43:52;16.20;99.90
50162;DHT22;36061;48.116;11.612;2023-08-31T09:46:20;16.20;99.90
50162;DHT22;36061;48.116;11.612;2023-08-31T09:48:48;16.30;99.90
50162;DHT22;36061;48.116;11.612;2023-08-31T09:51:16;16.40;99.90
50162;DHT22;36061;48.116;11.612;2023-08-31T09:53:48;16.40;99.90
50162;DHT22;36061;48.116;11.612;2023-08-31T09:56:20;16.50;99.90
50162;DHT22;36061;48.116;11.612;2023-08-31T09:58:50;16.60;99.90
50162;DHT22;36061;48.116;11.612;2023-08-31T10:01:18;16.70;99.90
50162;DHT22;36061;48.116;11.612;2023-08-31T10:03:45;16.80;99.90
50162;DHT22;36061;48.116;11.612;2023-08-31T10:06:13;16.80;99.90
50162;DHT22;36061;48.116;11.612;2023-08-31T10:08:41;16.70;99.90
50162;DHT22;36061;48.116;11.612;2023-08-31T10:11:11;16.70;99.90
50162;DHT22;36061;48.116;11.612;2023-08-31T10:13:41;16.70;99.90
50162;DHT22;36061;48.116;11.612;2023-08-31T10:16:08;16.70;99.90
50162;DHT22;36061;48.116;11.612;2023-08-31T10:18:37;16.80;99.90
50162;DHT22;36061;48.116;11.612;2023-08-31T10:21:04;16.80;99.90
50162;DHT22;36061;48.116;11.612;2023-08-31T10:23:32;16.80;99.90
50162;DHT22;36061;48.116;11.612;2023-08-31T10:26:02;16.70;99.90
50162;DHT22;36061;48.116;11.612;2023-08-31T10:28:42;16.60;99.90
50162;DHT22;36061;48.116;11.612;2023-08-31T10:31:10;16.60;99.90
50162;DHT22;36061;48.116;11.612;2023-08-31T10:33:43;16.50;99.90
50162;DHT22;36061;48.116;11.612;2023-08-31T10:36:13;16.50;99.90
50162;DHT22;36061;48.116;11.612;2023-08-31T10:38:42;16.50;99.90
50162;DHT22;36061;48.116;11.612;2023-08-31T10:41:22;16.50;99.90
50162;DHT22;36061;48.116;11.612;2023-08-31T10:43:53;16.50;99.90
50162;DHT22;36061;48.116;11.612;2023-08-31T10:46:29;16.50;99.90
50162;DHT22;36061;48.116;11.612;2023-08-31T10:48:57;16.40;99.90
50162;DHT22;36061;48.116;11.612;2023-08-31T10:51:26;16.40;99.90
50162;DHT22;36061;48.116;11.612;2023-08-31T10:54:19;16.30;99.90
50162;DHT22;36061;48.116;11.612;2023-08-31T10:56:54;16.30;99.90
50162;DHT22;36061;48.116;11.612;2023-08-31T10:59:24;16.30;99.90
50162;DHT22;36061;48.116;11.612;2023-08-31T11:01:55;16.30;99.90
50162;DHT22;36061;48.116;11.612;2023-08-31T11:04:23;16.30;99.90
50162;DHT22;36061;48.116;11.612;2023-08-31T11:07:13;16.30;99.90
50162;DHT22;36061;48.116;11.612;2023-08-31T11:09:41;16.20;99.90
50162;DHT22;36061;48.116;11.612;2023-08-31T11:12:09;16.30;99.90
50162;DHT22;36061;48.116;11.612;2023-08-31T11:14:38;16.30;99.90
50162;DHT22;36061;48.116;11.612;2023-08-31T11:17:06;16.30;99.90
50162;DHT22;36061;48.116;11.612;2023-08-31T11:19:34;16.40;99.90
50162;DHT22;36061;48.116;11.612;2023-08-31T11:22:02;16.40;99.90
50162;DHT22;36061;48.116;11.612;2023-08-31T11:24:30;16.40;99.90
50162;DHT22;36061;48.116;11.612;2023-08-31T11:26:58;16.30;99.90
50162;DHT22;36061;48.116;11.612;2023-08-31T11:29:25;16.30;99.90
50162;DHT22;36061;48.116;11.612;2023-08-31T11:31:56;16.20;99.90
50162;DHT22;36061;48.116;11.612;2023-08-31T11:34:26;16.20;99.90
50162;DHT22;36061;48.116;11.612;2023-08-31T11:36:53;16.20;99.90
50162;DHT22;36061;48.116;11.612;2023-08-31T11:39:20;16.10;99.90
50162;DHT22;36061;48.116;11.612;2023-08-31T11:41:47;16.00;99.90
50162;DHT22;36061;48.116;11.612;2023-08-31T11:44:15;15.90;99.90
50162;DHT22;36061;48.116;11.612;2023-08-31T11:46:45;15.90;99.90
50162;DHT22;36061;48.116;11.612;2023-08-31T11:49:18;15.90;99.90
50162;DHT22;36061;48.116;11.612;2023-08-31T11:51:45;16.10;99.90
50162;DHT22;36061;48.116;11.612;2023-08-31T11:54:13;16.20;99.90
50162;DHT22;36061;48.116;11.612;2023-08-31T11:56:41;16.40;99.90
50162;DHT22;36061;48.116;11.612;2023-08-31T11:59:09;16.50;99.90
50162;DHT22;36061;48.116;11.612;2023-08-31T12:01:38;16.50;99.90
50162;DHT22;36061;48.116;11.612;2023-08-31T12:04:11;16.60;99.90
50162;DHT22;36061;48.116;11.612;2023-08-31T12:06:40;16.60;99.90
50162;DHT22;36061;48.116;11.612;2023-08-31T12:09:08;16.70;99.90
50162;DHT22;36061;48.116;11.612;2023-08-31T12:11:35;16.80;99.90
50162;DHT22;36061;48.116;11.612;2023-08-31T12:14:18;16.90;99.90
50162;DHT22;36061;48.116;11.612;2023-08-31T12:16:46;16.90;99.90
50162;DHT22;36061;48.116;11.612;2023-08-31T12:19:13;16.80;99.90
50162;DHT22;36061;48.116;11.612;2023-08-31T12:21:42;16.80;99.90
50162;DHT22;36061;48.116;11.612;2023-08-31T12:24:10;16.80;99.90
50162;DHT22;36061;48.116;11.612;2023-08-31T12:26:37;16.90;99.90
50162;DHT22;36061;48.116;11.612;2023-08-31T12:29:05;16.90;99.90
50162;DHT22;36061;48.116;11.612;2023-08-31T12:31:32;16.80;99.90
50162;DHT22;36061;48.116;11.612;2023-08-31T12:34:00;16.90;99.90
50162;DHT22;36061;48.116;11.612;2023-08-31T12:36:30;16.90;99.90
50162;DHT22;36061;48.116;11.612;2023-08-31T12:38:59;16.80;99.90
50162;DHT22;36061;48.116;11.612;2023-08-31T12:41:31;16.80;99.90
50162;DHT22;36061;48.116;11.612;2023-08-31T12:43:58;16.80;99.90
50162;DHT22;36061;48.116;11.612;2023-08-31T12:46:25;16.90;99.90
50162;DHT22;36061;48.116;11.612;2023-08-31T12:48:53;16.90;99.90
50162;DHT22;36061;48.116;11.612;2023-08-31T12:51:20;17.00;99.90
50162;DHT22;36061;48.116;11.612;2023-08-31T12:53:47;17.20;99.90
50162;DHT22;36061;48.116;11.612;2023-08-31T12:56:16;17.30;99.90
50162;DHT22;36061;48.116;11.612;2023-08-31T12:58:48;17.30;99.90
50162;DHT22;36061;48.116;11.612;2023-08-31T13:01:16;17.40;99.90
50162;DHT22;36061;48.116;11.612;2023-08-31T13:03:43;17.30;99.90
50162;DHT22;36061;48.116;11.612;2023-08-31T13:06:11;17.30;99.90
50162;DHT22;36061;48.116;11.612;2023-08-31T13:08:38;17.40;99.90
50162;DHT22;36061;48.116;11.612;2023-08-31T13:11:06;17.40;99.90
50162;DHT22;36061;48.116;11.612;2023-08-31T13:13:34;17.50;99.90
50162;DHT22;36061;48.116;11.612;2023-08-31T13:16:03;17.40;99.90
50162;DHT22;36061;48.116;11.612;2023-08-31T13:18:30;17.40;99.90
50162;DHT22;36061;48.116;11.612;2023-08-31T13:20:57;17.40;99.90
50162;DHT22;36061;48.116;11.612;2023-08-31T13:23:24;17.40;99.90
50162;DHT22;36061;48.116;11.612;2023-08-31T13:25:52;17.30;99.90
50162;DHT22;36061;48.116;11.612;2023-08-31T13:28:19;17.40;99.90
50162;DHT22;36061;48.116;11.612;2023-08-31T13:30:47;17.40;99.90
50162;DHT22;36061;48.116;11.612;2023-08-31T13:33:15;17.40;99.90
50162;DHT22;36061;48.116;11.612;2023-08-31T13:35:42;17.40;99.90
50162;DHT22;36061;48.116;11.612;2023-08-31T13:38:09;17.40;99.90
50162;DHT22;36061;48.116;11.612;2023-08-31T13:40:36;17.40;99.90
50162;DHT22;36061;48.116;11.612;2023-08-31T13:43:04;17.40;99.90
50162;DHT22;36061;48.116;11.612;2023-08-31T13:45:32;17.40;99.90
50162;DHT22;36061;48.116;11.612;2023-08-31T13:48:01;17.40;99.90
50162;DHT22;36061;48.116;11.612;2023-08-31T13:50:30;17.50;99.90
50162;DHT22;36061;48.116;11.612;2023-08-31T13:52:57;17.50;99.90
50162;DHT22;36061;48.116;11.612;2023-08-31T13:55:24;17.50;99.90
50162;DHT22;36061;48.116;11.612;2023-08-31T13:57:52;17.50;99.90
50162;DHT22;36061;48.116;11.612;2023-08-31T14:00:20;17.50;99.90
50162;DHT22;36061;48.116;11.612;2023-08-31T14:02:47;17.50;99.90
50162;DHT22;36061;48.116;11.612;2023-08-31T14:05:16;17.50;99.90
50162;DHT22;36061;48.116;11.612;2023-08-31T14:07:43;17.50;99.90
50162;DHT22;36061;48.116;11.612;2023-08-31T14:10:10;17.50;99.90
50162;DHT22;36061;48.116;11.612;2023-08-31T14:12:38;17.50;99.90
50162;DHT22;36061;48.116;11.612;2023-08-31T14:15:06;17.50;99.90
50162;DHT22;36061;48.116;11.612;2023-08-31T14:17:33;17.60;99.90
50162;DHT22;36061;48.116;11.612;2023-08-31T14:20:01;17.60;99.90
50162;DHT22;36061;48.116;11.612;2023-08-31T14:22:33;17.60;99.90
50162;DHT22;36061;48.116;11.612;2023-08-31T14:25:00;17.60;99.90
50162;DHT22;36061;48.116;11.612;2023-08-31T14:27:29;17.60;99.90
50162;DHT22;36061;48.116;11.612;2023-08-31T14:29:57;17.50;99.90
50162;DHT22;36061;48.116;11.612;2023-08-31T14:32:24;17.50;99.90
50162;DHT22;36061;48.116;11.612;2023-08-31T14:34:53;17.50;99.90
50162;DHT22;36061;48.116;11.612;2023-08-31T14:37:21;17.50;99.90
50162;DHT22;36061;48.116;11.612;2023-08-31T14:39:49;17.40;99.90
50162;DHT22;36061;48.116;11.612;2023-08-31T14:42:17;17.40;99.90
50162;DHT22;36061;48.116;11.612;2023-08-31T14:44:46;17.40;99.90
50162;DHT22;36061;48.116;11.612;2023-08-31T14:47:13;17.40;99.90
50162;DHT22;36061;48.116;11.612;2023-08-31T14:49:40;17.50;99.90
50162;DHT22;36061;48.116;11.612;2023-08-31T14:52:08;17.50;99.90
50162;DHT22;36061;48.116;11.612;2023-08-31T14:54:35;17.60;99.90
50162;DHT22;36061;48.116;11.612;2023-08-31T14:57:04;17.60;99.90
50162;DHT22;36061;48.116;11.612;2023-08-31T14:59:32;17.60;99.90
50162;DHT22;36061;48.116;11.612;2023-08-31T15:01:59;17.60;99.90
50162;DHT22;36061;48.116;11.612;2023-08-31T15:04:27;17.60;99.90
50162;DHT22;36061;48.116;11.612;2023-08-31T15:06:55;17.60;99.90
50162;DHT22;36061;48.116;11.612;2023-08-31T15:09:23;17.60;99.90
50162;DHT22;36061;48.116;11.612;2023-08-31T15:11:50;17.70;99.90
50162;DHT22;36061;48.116;11.612;2023-08-31T15:14:19;17.70;99.90
50162;DHT22;36061;48.116;11.612;2023-08-31T15:16:46;17.70;99.90
50162;DHT22;36061;48.116;11.612;2023-08-31T15:19:13;17.70;99.90
50162;DHT22;36061;48.116;11.612;2023-08-31T15:21:41;17.60;99.90
50162;DHT22;36061;48.116;11.612;2023-08-31T15:24:08;17.60;99.90